sensor_id;sensor_type;location;lat;lon;timestamp;P1;durP1;ratioP1;P2;durP2;ratioP2
21657;SDS011;10990;48.174;9.782;2022-11-20T00:00:37;5.00;;;3.17;;
21657;SDS011;10990;48.174;9.782;2022-11-20T00:03:04;3.83;;;2.90;;
21657;SDS011;10990;48.174;9.782;2022-11-20T00:05:31;4.93;;;3.17;;
21657;SDS011;10990;48.174;9.782;2022-11-20T00:07:58;6.77;;;3.13;;
21657;SDS011;10990;48.174;9.782;2022-11-20T00:10:25;4.73;;;3.03;;
21657;SDS011;10990;48.174;9.782;2022-11-20T00:12:54;4.63;;;3.30;;
21657;SDS011;10990;48.174;9.782;2022-11-20T00:15:20;4.77;;;3.27;;
21657;SDS011;10990;48.174;9.782;2022-11-20T00:17:47;4.90;;;3.27;;
21657;SDS011;10990;48.174;9.782;2022-11-20T00:20:14;7.43;;;3.20;;
21657;SDS011;10990;48.174;9.782;2022-11-20T00:22:41;6.57;;;3.13;;
21657;SDS011;10990;48.174;9.782;2022-11-20T00:25:08;6.00;;;2.97;;
21657;SDS011;10990;48.174;9.782;2022-11-20T00:27:35;5.03;;;3.30;;
21657;SDS011;10990;48.174;9.782;2022-11-20T00:30:03;5.67;;;3.27;;
21657;SDS011;10990;48.174;9.782;2022-11-20T00:32:31;5.23;;;3.60;;
21657;SDS011;10990;48.174;9.782;2022-11-20T00:34:58;3.63;;;2.80;;
21657;SDS011;10990;48.174;9.782;2022-11-20T00:37:24;5.07;;;3.30;;
21657;SDS011;10990;48.174;9.782;2022-11-20T00:39:51;4.70;;;3.10;;
21657;SDS011;10990;48.174;9.782;2022-11-20T00:42:18;5.13;;;2.87;;
21657;SDS011;10990;48.174;9.782;2022-11-20T00:44:45;5.00;;;3.30;;
21657;SDS011;10990;48.174;9.782;2022-11-20T00:47:13;5.77;;;3.30;;
21657;SDS011;10990;48.174;9.782;2022-11-20T00:49:39;4.97;;;3.00;;
21657;SDS011;10990;48.174;9.782;2022-11-20T00:52:06;5.90;;;2.97;;
21657;SDS011;10990;48.174;9.782;2022-11-20T00:54:33;5.87;;;3.77;;
21657;SDS011;10990;48.174;9.782;2022-11-20T00:57:00;4.53;;;3.20;;
21657;SDS011;10990;48.174;9.782;2022-11-20T00:59:27;4.80;;;3.13;;
21657;SDS011;10990;48.174;9.782;2022-11-20T01:01:54;4.80;;;3.07;;
21657;SDS011;10990;48.174;9.782;2022-11-20T01:04:22;6.03;;;3.70;;
21657;SDS011;10990;48.174;9.782;2022-11-20T01:06:49;5.37;;;3.50;;
21657;SDS011;10990;48.174;9.782;2022-11-20T01:09:15;7.43;;;3.80;;
21657;SDS011;10990;48.174;9.782;2022-11-20T01:11:43;5.20;;;3.30;;
21657;SDS011;10990;48.174;9.782;2022-11-20T01:14:11;4.30;;;3.30;;
21657;SDS011;10990;48.174;9.782;2022-11-20T01:16:40;4.63;;;3.00;;
21657;SDS011;10990;48.174;9.782;2022-11-20T01:19:10;5.10;;;3.33;;
21657;SDS011;10990;48.174;9.782;2022-11-20T01:21:40;4.83;;;3.10;;
21657;SDS011;10990;48.174;9.782;2022-11-20T01:24:08;4.43;;;3.33;;
21657;SDS011;10990;48.174;9.782;2022-11-20T01:26:38;4.90;;;3.10;;
21657;SDS011;10990;48.174;9.782;2022-11-20T01:29:08;6.10;;;3.87;;
21657;SDS011;10990;48.174;9.782;2022-11-20T01:31:38;5.77;;;3.27;;
21657;SDS011;10990;48.174;9.782;2022-11-20T01:34:06;5.10;;;3.20;;
21657;SDS011;10990;48.174;9.782;2022-11-20T01:36:35;6.20;;;3.63;;
21657;SDS011;10990;48.174;9.782;2022-11-20T01:39:05;6.20;;;3.20;;
21657;SDS011;10990;48.174;9.782;2022-11-20T01:41:34;6.63;;;3.40;;
21657;SDS011;10990;48.174;9.782;2022-11-20T01:44:19;5.77;;;3.60;;
21657;SDS011;10990;48.174;9.782;2022-11-20T01:46:49;4.73;;;3.10;;
21657;SDS011;10990;48.174;9.782;2022-11-20T01:49:21;5.90;;;3.27;;
21657;SDS011;10990;48.174;9.782;2022-11-20T01:51:54;5.23;;;3.40;;
21657;SDS011;10990;48.174;9.782;2022-11-20T01:54:25;4.83;;;3.30;;
21657;SDS011;10990;48.174;9.782;2022-11-20T01:57:00;4.97;;;3.30;;
21657;SDS011;10990;48.174;9.782;2022-11-20T01:59:29;4.83;;;3.40;;
21657;SDS011;10990;48.174;9.782;2022-11-20T02:01:57;5.47;;;3.37;;
21657;SDS011;10990;48.174;9.782;2022-11-20T02:04:24;5.53;;;3.30;;
21657;SDS011;10990;48.174;9.782;2022-11-20T02:06:52;6.77;;;3.07;;
21657;SDS011;10990;48.174;9.782;2022-11-20T02:09:27;4.60;;;3.10;;
21657;SDS011;10990;48.174;9.782;2022-11-20T02:11:54;4.03;;;3.30;;
21657;SDS011;10990;48.174;9.782;2022-11-20T02:14:22;4.70;;;3.30;;
21657;SDS011;10990;48.174;9.782;2022-11-20T02:16:49;6.53;;;3.60;;
21657;SDS011;10990;48.174;9.782;2022-11-20T02:19:20;5.63;;;3.37;;
21657;SDS011;10990;48.174;9.782;2022-11-20T02:21:55;5.80;;;3.47;;
21657;SDS011;10990;48.174;9.782;2022-11-20T02:24:27;5.63;;;3.40;;
21657;SDS011;10990;48.174;9.782;2022-11-20T02:26:56;5.33;;;3.50;;
21657;SDS011;10990;48.174;9.782;2022-11-20T02:29:26;5.13;;;3.40;;
21657;SDS011;10990;48.174;9.782;2022-11-20T02:31:57;5.70;;;3.60;;
21657;SDS011;10990;48.174;9.782;2022-11-20T02:34:25;6.43;;;3.73;;
21657;SDS011;10990;48.174;9.782;2022-11-20T02:36:52;6.13;;;3.60;;
21657;SDS011;10990;48.174;9.782;2022-11-20T02:39:19;5.00;;;3.40;;
21657;SDS011;10990;48.174;9.782;2022-11-20T02:41:50;6.47;;;4.00;;
21657;SDS011;10990;48.174;9.782;2022-11-20T02:44:19;7.37;;;3.90;;
21657;SDS011;10990;48.174;9.782;2022-11-20T02:46:46;6.97;;;3.70;;
21657;SDS011;10990;48.174;9.782;2022-11-20T02:49:13;5.43;;;3.67;;
21657;SDS011;10990;48.174;9.782;2022-11-20T02:51:41;6.50;;;3.90;;
21657;SDS011;10990;48.174;9.782;2022-11-20T02:54:08;5.23;;;3.70;;
21657;SDS011;10990;48.174;9.782;2022-11-20T02:56:35;5.57;;;3.80;;
21657;SDS011;10990;48.174;9.782;2022-11-20T02:59:05;4.40;;;3.37;;
21657;SDS011;10990;48.174;9.782;2022-11-20T03:01:32;6.60;;;3.60;;
21657;SDS011;10990;48.174;9.782;2022-11-20T03:03:59;4.97;;;3.40;;
21657;SDS011;10990;48.174;9.782;2022-11-20T03:06:25;5.33;;;3.80;;
21657;SDS011;10990;48.174;9.782;2022-11-20T03:08:52;5.73;;;3.70;;
21657;SDS011;10990;48.174;9.782;2022-11-20T03:11:19;8.20;;;4.10;;
21657;SDS011;10990;48.174;9.782;2022-11-20T03:13:46;4.60;;;3.70;;
21657;SDS011;10990;48.174;9.782;2022-11-20T03:16:15;4.57;;;3.40;;
21657;SDS011;10990;48.174;9.782;2022-11-20T03:18:43;5.27;;;3.53;;
21657;SDS011;10990;48.174;9.782;2022-11-20T03:21:11;6.43;;;3.60;;
21657;SDS011;10990;48.174;9.782;2022-11-20T03:23:39;5.27;;;3.97;;
21657;SDS011;10990;48.174;9.782;2022-11-20T03:26:09;6.57;;;4.17;;
21657;SDS011;10990;48.174;9.782;2022-11-20T03:28:38;6.90;;;4.33;;
21657;SDS011;10990;48.174;9.782;2022-11-20T03:31:06;5.97;;;4.53;;
21657;SDS011;10990;48.174;9.782;2022-11-20T03:33:38;6.37;;;4.40;;
21657;SDS011;10990;48.174;9.782;2022-11-20T03:36:07;7.70;;;4.97;;
21657;SDS011;10990;48.174;9.782;2022-11-20T03:38:35;7.07;;;4.60;;
21657;SDS011;10990;48.174;9.782;2022-11-20T03:41:03;9.47;;;5.93;;
21657;SDS011;10990;48.174;9.782;2022-11-20T03:43:32;9.90;;;6.23;;
21657;SDS011;10990;48.174;9.782;2022-11-20T03:45:59;8.97;;;6.07;;
21657;SDS011;10990;48.174;9.782;2022-11-20T03:48:26;8.77;;;5.80;;
21657;SDS011;10990;48.174;9.782;2022-11-20T03:51:07;7.60;;;5.70;;
21657;SDS011;10990;48.174;9.782;2022-11-20T03:53:35;8.57;;;6.20;;
21657;SDS011;10990;48.174;9.782;2022-11-20T03:56:01;10.63;;;6.13;;
21657;SDS011;10990;48.174;9.782;2022-11-20T03:58:28;7.67;;;5.83;;
21657;SDS011;10990;48.174;9.782;2022-11-20T04:00:55;9.27;;;5.93;;
21657;SDS011;10990;48.174;9.782;2022-11-20T04:03:22;8.97;;;6.00;;
21657;SDS011;10990;48.174;9.782;2022-11-20T04:05:49;8.97;;;6.00;;
21657;SDS011;10990;48.174;9.782;2022-11-20T04:08:17;9.10;;;6.47;;
21657;SDS011;10990;48.174;9.782;2022-11-20T04:10:44;8.20;;;5.43;;
21657;SDS011;10990;48.174;9.782;2022-11-20T04:13:10;8.53;;;6.03;;
21657;SDS011;10990;48.174;9.782;2022-11-20T04:15:37;10.70;;;6.40;;
21657;SDS011;10990;48.174;9.782;2022-11-20T04:18:04;8.70;;;5.73;;
21657;SDS011;10990;48.174;9.782;2022-11-20T04:20:31;8.53;;;6.00;;
21657;SDS011;10990;48.174;9.782;2022-11-20T04:22:58;9.33;;;6.33;;
21657;SDS011;10990;48.174;9.782;2022-11-20T04:25:26;9.63;;;6.57;;
21657;SDS011;10990;48.174;9.782;2022-11-20T04:27:52;8.57;;;5.60;;
21657;SDS011;10990;48.174;9.782;2022-11-20T04:30:19;8.47;;;5.47;;
21657;SDS011;10990;48.174;9.782;2022-11-20T04:32:46;8.00;;;5.83;;
21657;SDS011;10990;48.174;9.782;2022-11-20T04:35:13;8.47;;;5.77;;
21657;SDS011;10990;48.174;9.782;2022-11-20T04:37:40;9.80;;;5.37;;
21657;SDS011;10990;48.174;9.782;2022-11-20T04:40:07;8.77;;;5.37;;
21657;SDS011;10990;48.174;9.782;2022-11-20T04:42:35;6.93;;;4.97;;
21657;SDS011;10990;48.174;9.782;2022-11-20T04:45:02;8.67;;;5.53;;
21657;SDS011;10990;48.174;9.782;2022-11-20T04:47:29;8.23;;;5.47;;
21657;SDS011;10990;48.174;9.782;2022-11-20T04:49:56;7.50;;;5.20;;
21657;SDS011;10990;48.174;9.782;2022-11-20T04:52:23;9.20;;;5.83;;
21657;SDS011;10990;48.174;9.782;2022-11-20T04:54:49;7.10;;;5.10;;
21657;SDS011;10990;48.174;9.782;2022-11-20T04:57:18;8.33;;;5.77;;
21657;SDS011;10990;48.174;9.782;2022-11-20T04:59:46;6.87;;;5.20;;
21657;SDS011;10990;48.174;9.782;2022-11-20T05:02:13;7.33;;;5.53;;
21657;SDS011;10990;48.174;9.782;2022-11-20T05:04:40;7.13;;;5.30;;
21657;SDS011;10990;48.174;9.782;2022-11-20T05:07:06;7.37;;;4.73;;
21657;SDS011;10990;48.174;9.782;2022-11-20T05:09:33;8.50;;;5.00;;
21657;SDS011;10990;48.174;9.782;2022-11-20T05:12:00;7.23;;;4.83;;
21657;SDS011;10990;48.174;9.782;2022-11-20T05:14:27;6.93;;;4.73;;
21657;SDS011;10990;48.174;9.782;2022-11-20T05:16:55;9.43;;;5.00;;
21657;SDS011;10990;48.174;9.782;2022-11-20T05:19:21;8.40;;;5.10;;
21657;SDS011;10990;48.174;9.782;2022-11-20T05:21:48;9.27;;;5.70;;
21657;SDS011;10990;48.174;9.782;2022-11-20T05:24:15;7.27;;;5.30;;
21657;SDS011;10990;48.174;9.782;2022-11-20T05:26:42;8.27;;;5.80;;
21657;SDS011;10990;48.174;9.782;2022-11-20T05:29:09;8.13;;;5.60;;
21657;SDS011;10990;48.174;9.782;2022-11-20T05:31:38;8.40;;;6.10;;
21657;SDS011;10990;48.174;9.782;2022-11-20T05:34:06;7.93;;;5.60;;
21657;SDS011;10990;48.174;9.782;2022-11-20T05:36:33;7.20;;;5.10;;
21657;SDS011;10990;48.174;9.782;2022-11-20T05:39:00;8.33;;;5.80;;
21657;SDS011;10990;48.174;9.782;2022-11-20T05:41:27;8.50;;;5.50;;
21657;SDS011;10990;48.174;9.782;2022-11-20T05:43:55;8.43;;;5.37;;
21657;SDS011;10990;48.174;9.782;2022-11-20T05:46:22;9.80;;;5.80;;
21657;SDS011;10990;48.174;9.782;2022-11-20T05:48:49;7.27;;;5.00;;
21657;SDS011;10990;48.174;9.782;2022-11-20T05:51:18;7.30;;;5.40;;
21657;SDS011;10990;48.174;9.782;2022-11-20T05:53:45;9.07;;;6.17;;
21657;SDS011;10990;48.174;9.782;2022-11-20T05:56:13;8.57;;;5.57;;
21657;SDS011;10990;48.174;9.782;2022-11-20T05:58:42;9.37;;;5.70;;
21657;SDS011;10990;48.174;9.782;2022-11-20T06:01:09;8.20;;;5.50;;
21657;SDS011;10990;48.174;9.782;2022-11-20T06:03:38;8.17;;;5.40;;
21657;SDS011;10990;48.174;9.782;2022-11-20T06:06:06;10.73;;;5.30;;
21657;SDS011;10990;48.174;9.782;2022-11-20T06:08:34;9.03;;;5.07;;
21657;SDS011;10990;48.174;9.782;2022-11-20T06:11:04;7.33;;;5.33;;
21657;SDS011;10990;48.174;9.782;2022-11-20T06:13:31;8.33;;;4.87;;
21657;SDS011;10990;48.174;9.782;2022-11-20T06:15:58;9.23;;;5.77;;
21657;SDS011;10990;48.174;9.782;2022-11-20T06:18:25;8.50;;;5.37;;
21657;SDS011;10990;48.174;9.782;2022-11-20T06:20:58;8.33;;;4.43;;
21657;SDS011;10990;48.174;9.782;2022-11-20T06:23:27;9.73;;;5.30;;
21657;SDS011;10990;48.174;9.782;2022-11-20T06:25:56;7.67;;;5.10;;
21657;SDS011;10990;48.174;9.782;2022-11-20T06:28:23;8.30;;;5.17;;
21657;SDS011;10990;48.174;9.782;2022-11-20T06:30:50;7.23;;;5.03;;
21657;SDS011;10990;48.174;9.782;2022-11-20T06:33:16;6.77;;;4.67;;
21657;SDS011;10990;48.174;9.782;2022-11-20T06:35:43;7.97;;;4.80;;
21657;SDS011;10990;48.174;9.782;2022-11-20T06:38:10;8.37;;;4.73;;
21657;SDS011;10990;48.174;9.782;2022-11-20T06:40:39;7.97;;;5.33;;
21657;SDS011;10990;48.174;9.782;2022-11-20T06:43:07;6.53;;;4.57;;
21657;SDS011;10990;48.174;9.782;2022-11-20T06:45:34;7.70;;;4.80;;
21657;SDS011;10990;48.174;9.782;2022-11-20T06:48:01;7.17;;;5.03;;
21657;SDS011;10990;48.174;9.782;2022-11-20T06:50:28;7.90;;;5.40;;
21657;SDS011;10990;48.174;9.782;2022-11-20T06:52:56;9.60;;;5.43;;
21657;SDS011;10990;48.174;9.782;2022-11-20T06:55:22;9.13;;;5.00;;
21657;SDS011;10990;48.174;9.782;2022-11-20T06:57:50;7.97;;;4.70;;
21657;SDS011;10990;48.174;9.782;2022-11-20T07:00:18;7.30;;;5.27;;
21657;SDS011;10990;48.174;9.782;2022-11-20T07:02:45;7.43;;;4.80;;
21657;SDS011;10990;48.174;9.782;2022-11-20T07:05:12;5.90;;;4.37;;
21657;SDS011;10990;48.174;9.782;2022-11-20T07:07:39;7.20;;;4.87;;
21657;SDS011;10990;48.174;9.782;2022-11-20T07:10:06;6.10;;;4.20;;
21657;SDS011;10990;48.174;9.782;2022-11-20T07:12:33;6.07;;;4.50;;
21657;SDS011;10990;48.174;9.782;2022-11-20T07:15:00;6.60;;;4.40;;
21657;SDS011;10990;48.174;9.782;2022-11-20T07:17:29;8.60;;;4.70;;
21657;SDS011;10990;48.174;9.782;2022-11-20T07:19:55;5.60;;;3.87;;
21657;SDS011;10990;48.174;9.782;2022-11-20T07:22:22;6.80;;;4.53;;
21657;SDS011;10990;48.174;9.782;2022-11-20T07:24:49;6.27;;;4.20;;
21657;SDS011;10990;48.174;9.782;2022-11-20T07:27:15;7.43;;;4.53;;
21657;SDS011;10990;48.174;9.782;2022-11-20T07:29:42;6.37;;;4.47;;
21657;SDS011;10990;48.174;9.782;2022-11-20T07:32:09;7.03;;;5.00;;
21657;SDS011;10990;48.174;9.782;2022-11-20T07:34:37;7.67;;;4.40;;
21657;SDS011;10990;48.174;9.782;2022-11-20T07:37:04;6.63;;;4.23;;
21657;SDS011;10990;48.174;9.782;2022-11-20T07:39:31;8.27;;;4.90;;
21657;SDS011;10990;48.174;9.782;2022-11-20T07:41:57;8.67;;;4.77;;
21657;SDS011;10990;48.174;9.782;2022-11-20T07:44:24;6.83;;;4.27;;
21657;SDS011;10990;48.174;9.782;2022-11-20T07:46:51;8.60;;;4.67;;
21657;SDS011;10990;48.174;9.782;2022-11-20T07:49:18;7.23;;;4.17;;
21657;SDS011;10990;48.174;9.782;2022-11-20T07:51:46;5.90;;;3.93;;
21657;SDS011;10990;48.174;9.782;2022-11-20T07:54:13;6.23;;;4.00;;
21657;SDS011;10990;48.174;9.782;2022-11-20T07:56:39;4.93;;;3.53;;
21657;SDS011;10990;48.174;9.782;2022-11-20T07:59:06;6.63;;;3.77;;
21657;SDS011;10990;48.174;9.782;2022-11-20T08:01:33;5.30;;;3.33;;
21657;SDS011;10990;48.174;9.782;2022-11-20T08:04:00;4.07;;;3.33;;
21657;SDS011;10990;48.174;9.782;2022-11-20T08:06:27;5.03;;;3.67;;
21657;SDS011;10990;48.174;9.782;2022-11-20T08:08:55;5.97;;;3.37;;
21657;SDS011;10990;48.174;9.782;2022-11-20T08:11:21;3.87;;;3.07;;
21657;SDS011;10990;48.174;9.782;2022-11-20T08:14:05;4.00;;;3.13;;
21657;SDS011;10990;48.174;9.782;2022-11-20T08:16:38;4.97;;;2.77;;
21657;SDS011;10990;48.174;9.782;2022-11-20T08:19:06;2.97;;;2.50;;
21657;SDS011;10990;48.174;9.782;2022-11-20T08:21:33;4.00;;;2.70;;
21657;SDS011;10990;48.174;9.782;2022-11-20T08:24:01;3.13;;;2.10;;
21657;SDS011;10990;48.174;9.782;2022-11-20T08:26:28;3.73;;;2.17;;
21657;SDS011;10990;48.174;9.782;2022-11-20T08:28:55;2.93;;;2.20;;
21657;SDS011;10990;48.174;9.782;2022-11-20T08:31:22;2.87;;;1.90;;
21657;SDS011;10990;48.174;9.782;2022-11-20T08:33:50;2.27;;;1.70;;
21657;SDS011;10990;48.174;9.782;2022-11-20T08:36:17;3.97;;;2.10;;
21657;SDS011;10990;48.174;9.782;2022-11-20T08:38:46;3.30;;;1.80;;
21657;SDS011;10990;48.174;9.782;2022-11-20T08:41:15;3.43;;;2.00;;
21657;SDS011;10990;48.174;9.782;2022-11-20T08:43:53;2.77;;;1.90;;
21657;SDS011;10990;48.174;9.782;2022-11-20T08:46:21;3.03;;;1.80;;
21657;SDS011;10990;48.174;9.782;2022-11-20T08:48:49;2.53;;;1.90;;
21657;SDS011;10990;48.174;9.782;2022-11-20T08:51:15;2.63;;;2.00;;
21657;SDS011;10990;48.174;9.782;2022-11-20T08:53:43;3.27;;;2.00;;
21657;SDS011;10990;48.174;9.782;2022-11-20T08:56:10;3.20;;;1.70;;
21657;SDS011;10990;48.174;9.782;2022-11-20T08:58:38;2.83;;;1.70;;
21657;SDS011;10990;48.174;9.782;2022-11-20T09:01:05;1.77;;;1.60;;
21657;SDS011;10990;48.174;9.782;2022-11-20T09:03:32;2.60;;;1.70;;
21657;SDS011;10990;48.174;9.782;2022-11-20T09:05:59;2.80;;;1.80;;
21657;SDS011;10990;48.174;9.782;2022-11-20T09:08:27;1.63;;;1.50;;
21657;SDS011;10990;48.174;9.782;2022-11-20T09:10:56;1.87;;;1.60;;
21657;SDS011;10990;48.174;9.782;2022-11-20T09:13:24;1.73;;;1.40;;
21657;SDS011;10990;48.174;9.782;2022-11-20T09:15:56;1.67;;;1.40;;
21657;SDS011;10990;48.174;9.782;2022-11-20T09:18:25;2.47;;;1.83;;
21657;SDS011;10990;48.174;9.782;2022-11-20T09:20:55;4.87;;;1.37;;
21657;SDS011;10990;48.174;9.782;2022-11-20T09:23:23;1.50;;;1.40;;
21657;SDS011;10990;48.174;9.782;2022-11-20T09:25:50;2.67;;;1.70;;
21657;SDS011;10990;48.174;9.782;2022-11-20T09:28:17;1.33;;;1.23;;
21657;SDS011;10990;48.174;9.782;2022-11-20T09:30:44;1.83;;;1.33;;
21657;SDS011;10990;48.174;9.782;2022-11-20T09:33:12;1.40;;;1.30;;
21657;SDS011;10990;48.174;9.782;2022-11-20T09:35:39;2.70;;;1.47;;
21657;SDS011;10990;48.174;9.782;2022-11-20T09:38:06;1.47;;;1.30;;
21657;SDS011;10990;48.174;9.782;2022-11-20T09:40:34;2.20;;;1.30;;
21657;SDS011;10990;48.174;9.782;2022-11-20T09:43:03;1.63;;;1.20;;
21657;SDS011;10990;48.174;9.782;2022-11-20T09:45:41;2.40;;;1.20;;
21657;SDS011;10990;48.174;9.782;2022-11-20T09:48:20;1.90;;;1.20;;
21657;SDS011;10990;48.174;9.782;2022-11-20T09:50:57;1.97;;;1.27;;
21657;SDS011;10990;48.174;9.782;2022-11-20T09:53:35;2.50;;;1.70;;
21657;SDS011;10990;48.174;9.782;2022-11-20T09:56:12;1.40;;;1.20;;
21657;SDS011;10990;48.174;9.782;2022-11-20T09:58:40;1.47;;;1.30;;
21657;SDS011;10990;48.174;9.782;2022-11-20T10:01:12;1.13;;;1.10;;
21657;SDS011;10990;48.174;9.782;2022-11-20T10:03:45;2.13;;;1.30;;
21657;SDS011;10990;48.174;9.782;2022-11-20T10:06:21;2.03;;;1.10;;
21657;SDS011;10990;48.174;9.782;2022-11-20T10:08:55;1.27;;;1.17;;
21657;SDS011;10990;48.174;9.782;2022-11-20T10:11:31;1.90;;;1.03;;
21657;SDS011;10990;48.174;9.782;2022-11-20T10:14:10;1.43;;;1.13;;
21657;SDS011;10990;48.174;9.782;2022-11-20T10:16:48;0.93;;;0.80;;
21657;SDS011;10990;48.174;9.782;2022-11-20T10:19:35;1.20;;;1.10;;
21657;SDS011;10990;48.174;9.782;2022-11-20T10:22:14;1.70;;;1.00;;
21657;SDS011;10990;48.174;9.782;2022-11-20T10:24:55;1.37;;;0.93;;
21657;SDS011;10990;48.174;9.782;2022-11-20T10:27:32;1.40;;;0.93;;
21657;SDS011;10990;48.174;9.782;2022-11-20T10:30:18;1.23;;;1.10;;
21657;SDS011;10990;48.174;9.782;2022-11-20T10:32:47;1.53;;;1.10;;
21657;SDS011;10990;48.174;9.782;2022-11-20T10:35:20;1.33;;;0.93;;
21657;SDS011;10990;48.174;9.782;2022-11-20T10:37:53;2.07;;;1.10;;
21657;SDS011;10990;48.174;9.782;2022-11-20T10:40:27;1.20;;;1.10;;
21657;SDS011;10990;48.174;9.782;2022-11-20T10:43:01;2.60;;;1.10;;
21657;SDS011;10990;48.174;9.782;2022-11-20T10:45:45;1.20;;;1.10;;
21657;SDS011;10990;48.174;9.782;2022-11-20T10:48:19;1.50;;;1.10;;
21657;SDS011;10990;48.174;9.782;2022-11-20T10:50:53;2.00;;;1.33;;
21657;SDS011;10990;48.174;9.782;2022-11-20T10:53:31;2.50;;;1.30;;
21657;SDS011;10990;48.174;9.782;2022-11-20T10:56:11;3.13;;;1.90;;
21657;SDS011;10990;48.174;9.782;2022-11-20T10:58:45;2.40;;;1.50;;
21657;SDS011;10990;48.174;9.782;2022-11-20T11:01:20;1.37;;;1.20;;
21657;SDS011;10990;48.174;9.782;2022-11-20T11:03:48;2.80;;;1.40;;
21657;SDS011;10990;48.174;9.782;2022-11-20T11:06:19;1.23;;;1.13;;
21657;SDS011;10990;48.174;9.782;2022-11-20T11:08:53;1.63;;;1.30;;
21657;SDS011;10990;48.174;9.782;2022-11-20T11:11:22;4.30;;;1.30;;
21657;SDS011;10990;48.174;9.782;2022-11-20T11:13:51;1.67;;;1.30;;
21657;SDS011;10990;48.174;9.782;2022-11-20T11:16:20;1.43;;;1.33;;
21657;SDS011;10990;48.174;9.782;2022-11-20T11:18:48;2.33;;;1.37;;
21657;SDS011;10990;48.174;9.782;2022-11-20T11:21:22;1.30;;;1.20;;
21657;SDS011;10990;48.174;9.782;2022-11-20T11:23:57;1.67;;;1.40;;
21657;SDS011;10990;48.174;9.782;2022-11-20T11:26:25;1.23;;;1.13;;
21657;SDS011;10990;48.174;9.782;2022-11-20T11:28:53;2.27;;;1.50;;
21657;SDS011;10990;48.174;9.782;2022-11-20T11:31:24;3.60;;;1.57;;
21657;SDS011;10990;48.174;9.782;2022-11-20T11:33:52;2.13;;;1.43;;
21657;SDS011;10990;48.174;9.782;2022-11-20T11:36:30;1.87;;;1.23;;
21657;SDS011;10990;48.174;9.782;2022-11-20T11:38:59;1.53;;;1.40;;
21657;SDS011;10990;48.174;9.782;2022-11-20T11:41:28;1.67;;;1.20;;
21657;SDS011;10990;48.174;9.782;2022-11-20T11:44:00;2.43;;;1.53;;
21657;SDS011;10990;48.174;9.782;2022-11-20T11:46:58;1.43;;;1.33;;
21657;SDS011;10990;48.174;9.782;2022-11-20T11:49:25;1.70;;;1.47;;
21657;SDS011;10990;48.174;9.782;2022-11-20T11:52:04;1.87;;;1.70;;
21657;SDS011;10990;48.174;9.782;2022-11-20T11:54:40;1.63;;;1.50;;
21657;SDS011;10990;48.174;9.782;2022-11-20T11:57:15;1.93;;;1.70;;
21657;SDS011;10990;48.174;9.782;2022-11-20T11:59:53;1.90;;;1.40;;
21657;SDS011;10990;48.174;9.782;2022-11-20T12:02:32;2.30;;;1.37;;
21657;SDS011;10990;48.174;9.782;2022-11-20T12:05:05;2.30;;;1.40;;
21657;SDS011;10990;48.174;9.782;2022-11-20T12:07:45;2.93;;;1.50;;
21657;SDS011;10990;48.174;9.782;2022-11-20T12:10:15;1.63;;;1.20;;
21657;SDS011;10990;48.174;9.782;2022-11-20T12:12:47;1.67;;;1.40;;
21657;SDS011;10990;48.174;9.782;2022-11-20T12:15:22;1.70;;;1.50;;
21657;SDS011;10990;48.174;9.782;2022-11-20T12:17:52;2.87;;;1.40;;
21657;SDS011;10990;48.174;9.782;2022-11-20T12:20:19;1.40;;;1.20;;
21657;SDS011;10990;48.174;9.782;2022-11-20T12:22:53;1.40;;;1.20;;
21657;SDS011;10990;48.174;9.782;2022-11-20T12:25:27;1.10;;;1.10;;
21657;SDS011;10990;48.174;9.782;2022-11-20T12:28:09;1.47;;;1.10;;
21657;SDS011;10990;48.174;9.782;2022-11-20T12:30:53;1.07;;;0.97;;
21657;SDS011;10990;48.174;9.782;2022-11-20T12:36:24;1.33;;;1.10;;
21657;SDS011;10990;48.174;9.782;2022-11-20T12:39:05;1.30;;;0.90;;
21657;SDS011;10990;48.174;9.782;2022-11-20T12:41:43;0.90;;;0.90;;
21657;SDS011;10990;48.174;9.782;2022-11-20T12:44:44;2.70;;;1.30;;
21657;SDS011;10990;48.174;9.782;2022-11-20T12:47:38;1.53;;;1.30;;
21657;SDS011;10990;48.174;9.782;2022-11-20T12:50:25;1.60;;;1.30;;
21657;SDS011;10990;48.174;9.782;2022-11-20T12:53:00;2.40;;;1.03;;
21657;SDS011;10990;48.174;9.782;2022-11-20T12:55:38;1.33;;;1.00;;
21657;SDS011;10990;48.174;9.782;2022-11-20T12:58:16;0.93;;;0.80;;
21657;SDS011;10990;48.174;9.782;2022-11-20T13:00:53;1.60;;;0.93;;
21657;SDS011;10990;48.174;9.782;2022-11-20T13:03:38;1.70;;;0.80;;
21657;SDS011;10990;48.174;9.782;2022-11-20T13:06:15;2.03;;;0.97;;
21657;SDS011;10990;48.174;9.782;2022-11-20T13:08:44;1.53;;;0.90;;
21657;SDS011;10990;48.174;9.782;2022-11-20T13:11:20;1.53;;;0.83;;
21657;SDS011;10990;48.174;9.782;2022-11-20T13:14:04;2.50;;;0.90;;
21657;SDS011;10990;48.174;9.782;2022-11-20T13:16:38;1.40;;;0.90;;
21657;SDS011;10990;48.174;9.782;2022-11-20T13:19:13;1.73;;;0.93;;
21657;SDS011;10990;48.174;9.782;2022-11-20T13:21:42;1.17;;;0.80;;
21657;SDS011;10990;48.174;9.782;2022-11-20T13:24:20;1.37;;;0.90;;
21657;SDS011;10990;48.174;9.782;2022-11-20T13:27:00;2.30;;;0.80;;
21657;SDS011;10990;48.174;9.782;2022-11-20T13:29:28;0.80;;;0.80;;
21657;SDS011;10990;48.174;9.782;2022-11-20T13:32:02;2.60;;;0.80;;
21657;SDS011;10990;48.174;9.782;2022-11-20T13:34:31;1.70;;;0.70;;
21657;SDS011;10990;48.174;9.782;2022-11-20T13:36:58;1.17;;;0.77;;
21657;SDS011;10990;48.174;9.782;2022-11-20T13:39:29;2.27;;;0.97;;
21657;SDS011;10990;48.174;9.782;2022-11-20T13:41:58;1.37;;;0.70;;
21657;SDS011;10990;48.174;9.782;2022-11-20T13:44:29;1.37;;;0.77;;
21657;SDS011;10990;48.174;9.782;2022-11-20T13:46:59;0.60;;;0.60;;
21657;SDS011;10990;48.174;9.782;2022-11-20T13:49:27;0.67;;;0.63;;
21657;SDS011;10990;48.174;9.782;2022-11-20T13:52:00;0.90;;;0.63;;
21657;SDS011;10990;48.174;9.782;2022-11-20T13:54:53;0.87;;;0.60;;
21657;SDS011;10990;48.174;9.782;2022-11-20T14:00:30;1.70;;;1.00;;
21657;SDS011;10990;48.174;9.782;2022-11-20T14:03:07;1.07;;;0.80;;
21657;SDS011;10990;48.174;9.782;2022-11-20T14:05:40;0.63;;;0.60;;
21657;SDS011;10990;48.174;9.782;2022-11-20T14:08:23;2.33;;;0.80;;
21657;SDS011;10990;48.174;9.782;2022-11-20T14:11:04;1.13;;;0.80;;
21657;SDS011;10990;48.174;9.782;2022-11-20T14:13:32;1.60;;;0.80;;
21657;SDS011;10990;48.174;9.782;2022-11-20T14:16:00;0.80;;;0.80;;
21657;SDS011;10990;48.174;9.782;2022-11-20T14:18:27;0.90;;;0.70;;
21657;SDS011;10990;48.174;9.782;2022-11-20T14:20:54;0.90;;;0.80;;
21657;SDS011;10990;48.174;9.782;2022-11-20T14:23:24;1.40;;;1.10;;
21657;SDS011;10990;48.174;9.782;2022-11-20T14:25:52;2.40;;;0.90;;
21657;SDS011;10990;48.174;9.782;2022-11-20T14:28:20;1.53;;;0.73;;
21657;SDS011;10990;48.174;9.782;2022-11-20T14:30:52;2.13;;;1.00;;
21657;SDS011;10990;48.174;9.782;2022-11-20T14:33:20;1.83;;;1.00;;
21657;SDS011;10990;48.174;9.782;2022-11-20T14:35:50;0.80;;;0.80;;
21657;SDS011;10990;48.174;9.782;2022-11-20T14:38:20;0.97;;;0.90;;
21657;SDS011;10990;48.174;9.782;2022-11-20T14:40:50;0.97;;;0.90;;
21657;SDS011;10990;48.174;9.782;2022-11-20T14:43:18;1.70;;;0.80;;
21657;SDS011;10990;48.174;9.782;2022-11-20T14:45:50;0.80;;;0.80;;
21657;SDS011;10990;48.174;9.782;2022-11-20T14:48:26;1.50;;;0.80;;
21657;SDS011;10990;48.174;9.782;2022-11-20T14:50:57;0.60;;;0.60;;
21657;SDS011;10990;48.174;9.782;2022-11-20T14:53:24;0.57;;;0.50;;
21657;SDS011;10990;48.174;9.782;2022-11-20T14:55:55;0.50;;;0.50;;
21657;SDS011;10990;48.174;9.782;2022-11-20T14:58:24;0.50;;;0.50;;
21657;SDS011;10990;48.174;9.782;2022-11-20T15:00:54;0.73;;;0.70;;
21657;SDS011;10990;48.174;9.782;2022-11-20T15:03:22;1.57;;;0.70;;
21657;SDS011;10990;48.174;9.782;2022-11-20T15:05:50;0.97;;;0.60;;
21657;SDS011;10990;48.174;9.782;2022-11-20T15:08:17;0.93;;;0.60;;
21657;SDS011;10990;48.174;9.782;2022-11-20T15:10:45;3.27;;;2.40;;